Time;durP1;ratioP1;P1;durP2;ratioP2;P2;SDS_P1;SDS_P2;PMS_P1;PMS_P2;Temp;Humidity;BMP_temperature;BMP_pressure;BME280_temperature;BME280_humidity;BME280_pressure;Samples;Min_cycle;Max_cycle;Signal;HPM_P1;HPM_P2
2022/03/12 00:01:32;;;;;;;18.25;5.67;;;;;;;-4.25;41.54;100517.95;1758045;80;20992;-83
2022/03/12 00:03:59;;;;;;;19.37;5.92;;;;;;;-4.27;42.23;100516.99;1739972;82;21015;-82
2022/03/12 00:06:27;;;;;;;17.00;5.65;;;;;;;-4.26;42.07;100506.43;1744888;80;21091;-83
2022/03/12 00:08:55;;;;;;;14.65;5.12;;;;;;;-4.28;42.62;100511.41;1755788;81;21092;-84
2022/03/12 00:11:29;;;;;;;21.20;4.87;;;;;;;-4.28;42.41;100512.69;1755329;80;21060;-83
2022/03/12 00:14:00;;;;;;;15.35;4.58;;;;;;;-4.28;42.03;100514.36;1737278;81;20992;-83
2022/03/12 00:16:26;;;;;;;13.98;5.10;;;;;;;-4.29;42.98;100517.30;1695700;82;21029;-84
2022/03/12 00:18:58;;;;;;;16.00;5.65;;;;;;;-4.29;43.02;100516.03;1727996;81;21045;-83
2022/03/12 00:21:34;;;;;;;13.25;5.37;;;;;;;-4.29;42.83;100518.97;1728003;82;20997;-82
2022/03/12 00:24:00;;;;;;;10.65;4.75;;;;;;;-4.28;42.50;100519.44;1727887;82;21049;-84
2022/03/12 00:26:29;;;;;;;18.77;5.67;;;;;;;-4.32;42.73;100519.65;1728010;81;21043;-84
2022/03/12 00:28:56;;;;;;;22.17;6.70;;;;;;;-4.34;42.69;100521.23;1768544;79;21055;-84
2022/03/12 00:31:25;;;;;;;25.10;6.92;;;;;;;-4.42;42.85;100513.20;1757512;79;21078;31
2022/03/12 00:33:52;;;;;;;20.52;7.75;;;;;;;-4.37;42.29;100523.61;1722194;81;21067;-83
2022/03/12 00:36:19;;;;;;;21.62;7.90;;;;;;;-4.45;42.78;100522.30;1693342;84;21430;-83
2022/03/12 00:38:46;;;;;;;19.52;7.05;;;;;;;-4.54;42.51;100525.16;1716599;82;21032;-82
2022/03/12 00:41:13;;;;;;;17.80;6.97;;;;;;;-4.61;42.62;100523.06;1718990;82;21276;-84
2022/03/12 00:43:40;;;;;;;18.30;7.10;;;;;;;-4.67;43.93;100527.38;1719270;81;21001;-84
2022/03/12 00:46:07;;;;;;;18.77;6.10;;;;;;;-4.75;44.33;100531.14;1688436;81;21180;-84
2022/03/12 00:48:34;;;;;;;18.57;7.12;;;;;;;-4.86;44.56;100519.47;1714775;84;20994;-84
2022/03/12 00:51:01;;;;;;;30.90;7.97;;;;;;;-4.96;45.74;100523.52;1751545;81;21035;-83
2022/03/12 00:53:28;;;;;;;20.52;6.83;;;;;;;-5.05;45.45;100531.45;1762816;81;21040;-83
2022/03/12 00:55:55;;;;;;;19.20;7.53;;;;;;;-5.05;45.45;100531.45;1754853;81;21031;-84
2022/03/12 00:58:21;;;;;;;17.75;6.00;;;;;;;-5.13;44.76;100537.33;1746460;80;21299;-84
2022/03/12 01:00:48;;;;;;;22.82;7.10;;;;;;;-5.12;46.47;100531.86;1746616;82;21034;-84
2022/03/12 01:03:15;;;;;;;23.70;7.47;;;;;;;-5.06;46.24;100521.68;1760446;77;21173;-83
2022/03/12 01:05:53;;;;;;;14.10;6.58;;;;;;;-5.06;46.24;100521.68;1857053;77;20992;-85
2022/03/12 01:08:23;;;;;;;18.75;7.28;;;;;;;-4.99;45.50;100536.89;1857109;77;21017;-83
2022/03/12 01:10:50;;;;;;;19.57;7.25;;;;;;;-4.97;46.36;100536.96;1857167;77;21234;-85
2022/03/12 01:13:17;;;;;;;30.92;11.20;;;;;;;-4.90;46.97;100542.90;1856869;77;21036;-83
2022/03/12 01:15:43;;;;;;;36.95;9.50;;;;;;;-4.94;46.75;100533.36;1856851;77;21044;-84
2022/03/12 01:18:18;;;;;;;29.63;8.80;;;;;;;-5.00;44.68;100538.53;1857028;77;21000;-85
2022/03/12 01:20:45;;;;;;;23.57;8.60;;;;;;;-5.06;46.71;100531.83;1882002;76;21012;-83
2022/03/12 01:23:13;;;;;;;28.27;9.65;;;;;;;-5.02;46.10;100537.56;1848377;77;21029;-83
2022/03/12 01:25:45;;;;;;;28.30;7.80;;;;;;;-5.05;47.77;100546.27;1824293;79;20990;-83
2022/03/12 01:28:15;;;;;;;13.25;5.78;;;;;;;-5.04;48.15;100556.02;1833068;77;21000;-83
2022/03/12 01:30:42;;;;;;;23.40;6.95;;;;;;;-5.13;47.52;100540.23;1816515;77;21343;-83
2022/03/12 01:33:09;;;;;;;15.38;6.45;;;;;;;-5.16;46.46;100549.81;1781473;81;21050;-83
2022/03/12 01:35:36;;;;;;;24.85;8.05;;;;;;;-5.27;48.74;100552.06;1781586;81;21020;-83
2022/03/12 01:38:04;;;;;;;15.23;6.58;;;;;;;-5.30;48.42;100562.03;1782661;80;21075;-82
2022/03/12 01:40:31;;;;;;;19.75;6.42;;;;;;;-5.30;48.42;100562.03;1752532;80;20985;-83
2022/03/12 01:42:58;;;;;;;17.05;6.30;;;;;;;-5.35;49.21;100551.98;1749739;82;21123;-83
2022/03/12 01:45:27;;;;;;;16.95;6.62;;;;;;;-5.31;49.40;100561.53;1750780;82;21039;-83
2022/03/12 01:48:01;;;;;;;22.10;6.95;;;;;;;-5.35;47.06;100560.50;1750702;82;21053;-85
2022/03/12 01:50:33;;;;;;;14.87;6.05;;;;;;;-5.32;46.34;100559.80;1759482;81;21004;-83
2022/03/12 01:53:04;;;;;;;20.50;7.25;;;;;;;-5.33;47.98;100566.91;1746535;80;21135;-85
2022/03/12 01:55:32;;;;;;;15.98;5.78;;;;;;;-5.33;46.73;100563.10;1720812;83;21064;-84
2022/03/12 01:58:01;;;;;;;11.53;5.03;;;;;;;-5.33;46.54;100561.83;1722014;82;21049;-83
2022/03/12 02:00:36;;;;;;;20.15;5.90;;;;;;;-5.36;47.91;100560.39;1714480;82;21047;-83
2022/03/12 02:03:03;;;;;;;19.10;6.45;;;;;;;-5.28;48.29;100580.36;1717034;83;21051;-82
2022/03/12 02:05:29;;;;;;;16.87;5.95;;;;;;;-5.26;48.14;100571.58;1697972;83;21051;-83
2022/03/12 02:08:00;;;;;;;17.70;6.22;;;;;;;-5.21;48.04;100579.97;1702703;82;21072;-85
2022/03/12 02:10:26;;;;;;;24.67;8.90;;;;;;;-5.21;48.04;100579.97;1720308;83;21015;-83
2022/03/12 02:12:53;;;;;;;16.62;5.17;;;;;;;-5.16;49.11;100589.52;1713420;84;21081;-83
2022/03/12 02:15:22;;;;;;;15.88;5.78;;;;;;;-5.16;49.11;100589.52;1719466;83;21108;-83
2022/03/12 02:17:52;;;;;;;15.40;6.65;;;;;;;-5.24;48.19;100582.30;1722149;81;21097;-83
2022/03/12 02:20:21;;;;;;;17.02;6.03;;;;;;;-5.24;48.19;100582.30;1721859;83;21007;-84
2022/03/12 02:22:53;;;;;;;13.03;6.00;;;;;;;-5.23;50.11;100580.66;1710083;83;21003;-83
2022/03/12 02:25:27;;;;;;;13.40;5.90;;;;;;;-5.23;50.11;100580.66;1782298;80;21010;-83
2022/03/12 02:27:59;;;;;;;21.02;5.97;;;;;;;-5.21;49.60;100596.84;1776637;81;21034;-82
2022/03/12 02:30:47;;;;;;;14.90;5.90;;;;;;;-5.29;49.43;100603.07;1752737;81;21044;-83
2022/03/12 02:33:05;;;;;;;16.00;5.70;;;;;;;-5.29;49.43;100603.07;1746925;82;21012;-82
2022/03/12 02:35:35;;;;;;;17.90;5.67;;;;;;;-5.32;50.90;100603.77;1739630;82;20988;-83
2022/03/12 02:38:03;;;;;;;11.28;5.03;;;;;;;-5.34;50.84;100598.12;1733373;80;21102;-84
2022/03/12 02:40:30;;;;;;;17.65;5.75;;;;;;;-5.38;50.00;100601.25;1740586;81;21000;-83
2022/03/12 02:43:00;;;;;;;18.02;5.65;;;;;;;-5.38;50.71;100599.98;1741372;81;20979;-82
2022/03/12 02:45:28;;;;;;;16.37;5.10;;;;;;;-5.40;50.93;100591.88;1750458;81;20999;-83
2022/03/12 02:47:56;;;;;;;13.50;5.60;;;;;;;-5.40;50.42;100603.28;1741349;82;21013;-83
2022/03/12 02:50:24;;;;;;;17.82;7.08;;;;;;;-5.40;50.42;100603.28;1770131;81;21034;-84
2022/03/12 02:52:53;;;;;;;15.38;6.35;;;;;;;-5.47;49.91;100611.30;1766176;81;20973;-82
2022/03/12 02:55:23;;;;;;;18.07;6.15;;;;;;;-5.47;49.91;100611.30;1742515;81;21035;-84
2022/03/12 02:57:52;;;;;;;21.25;7.75;;;;;;;-5.47;48.96;100616.37;1736048;81;21034;-82
2022/03/12 03:00:20;;;;;;;18.98;5.75;;;;;;;-5.51;50.55;100614.42;1734945;83;21027;-83
2022/03/12 03:02:56;;;;;;;13.72;5.15;;;;;;;-5.53;50.16;100610.02;1734609;81;21006;-84
2022/03/12 03:08:09;;;;;;;13.03;6.03;;;;;;;-5.65;52.75;100606.31;1740582;82;20995;-82
2022/03/12 03:10:39;;;;;;;11.85;5.22;;;;;;;-5.63;52.56;100618.68;1739342;83;21078;-83
2022/03/12 03:13:23;;;;;;;12.05;4.83;;;;;;;-5.65;54.67;100620.23;1743925;81;21017;-82
2022/03/12 03:15:59;;;;;;;17.30;6.17;;;;;;;-5.75;53.92;100621.70;1739694;82;21086;-82
2022/03/12 03:18:34;;;;;;;13.90;5.72;;;;;;;-5.83;55.09;100619.94;1747787;81;20971;-82
2022/03/12 03:21:02;;;;;;;15.40;5.95;;;;;;;-5.92;51.21;100615.16;1740680;82;21012;-83
2022/03/12 03:23:31;;;;;;;14.23;5.78;;;;;;;-6.04;51.44;100634.66;1740959;82;21031;-84
2022/03/12 03:26:01;;;;;;;19.23;6.87;;;;;;;-6.11;54.19;100622.36;1745788;81;21062;-84
2022/03/12 03:28:28;;;;;;;27.02;9.25;;;;;;;-6.08;54.27;100616.25;1729126;82;20998;-82
2022/03/12 03:30:55;;;;;;;27.65;10.32;;;;;;;-6.20;54.96;100602.00;1740457;82;21027;-84
2022/03/12 03:33:24;;;;;;;27.17;9.00;;;;;;;-6.12;54.76;100616.43;1769037;81;21061;-84
2022/03/12 03:35:51;;;;;;;20.40;8.28;;;;;;;-6.14;55.60;100609.52;1753204;81;21036;-82
2022/03/12 03:38:19;;;;;;;28.00;9.88;;;;;;;-6.08;55.57;100618.38;1745450;80;21065;-81
2022/03/12 03:40:46;;;;;;;25.85;11.30;;;;;;;-6.11;53.72;100621.97;1724873;83;21061;-82
2022/03/12 03:43:17;;;;;;;31.95;11.10;;;;;;;-6.22;55.70;100616.60;1724089;82;21048;-81
2022/03/12 03:45:48;;;;;;;48.73;21.35;;;;;;;-6.22;55.70;100616.60;1723717;83;21051;-83
2022/03/12 03:48:22;;;;;;;38.67;16.32;;;;;;;-6.25;55.65;100617.25;1725643;83;21037;-82
2022/03/12 03:50:52;;;;;;;29.42;9.60;;;;;;;-6.25;56.06;100613.86;1716750;83;21001;-83
2022/03/12 03:53:23;;;;;;;18.05;7.25;;;;;;;-6.31;55.73;100620.65;1727101;82;21148;-83
2022/03/12 03:55:51;;;;;;;21.82;7.42;;;;;;;-6.31;55.73;100620.65;1730336;82;21016;-83
2022/03/12 03:58:18;;;;;;;23.38;7.45;;;;;;;-6.37;51.71;100615.58;1706787;84;21044;-81
2022/03/12 04:00:56;;;;;;;14.87;6.97;;;;;;;-6.48;53.46;100618.67;1709425;83;21018;-83
2022/03/12 04:03:24;;;;;;;16.95;7.30;;;;;;;-6.56;57.19;100608.02;1726181;83;21184;-84
2022/03/12 04:05:51;;;;;;;37.50;8.05;;;;;;;-6.56;55.56;100610.95;1721128;83;21001;-83
2022/03/12 04:08:18;;;;;;;16.52;7.80;;;;;;;-6.56;55.56;100610.95;1742605;82;20972;-83
2022/03/12 04:10:45;;;;;;;27.77;8.13;;;;;;;-6.60;55.24;100612.39;1725134;81;21335;-84
2022/03/12 04:13:16;;;;;;;63.08;18.70;;;;;;;-6.60;55.24;100612.39;1726425;83;21633;-83
2022/03/12 04:15:42;;;;;;;55.60;19.62;;;;;;;-6.58;54.54;100612.47;1736686;82;20973;-84
2022/03/12 04:18:10;;;;;;;31.07;9.80;;;;;;;-6.59;56.46;100615.39;1680572;85;21052;-83
2022/03/12 04:20:38;;;;;;;46.65;15.50;;;;;;;-6.60;55.44;100617.05;1745399;82;21023;-85
2022/03/12 04:23:05;;;;;;;21.77;8.95;;;;;;;-6.63;56.73;100629.48;1716809;83;21387;-84
2022/03/12 04:25:32;;;;;;;20.32;8.18;;;;;;;-6.63;56.73;100629.48;1726609;82;21133;-82
2022/03/12 04:28:00;;;;;;;43.85;13.00;;;;;;;-6.62;55.11;100636.31;1721320;83;21046;-82
2022/03/12 04:30:28;;;;;;;37.48;10.50;;;;;;;-6.63;54.19;100629.48;1724652;82;21023;-83
2022/03/12 04:32:56;;;;;;;54.38;18.48;;;;;;;-6.66;54.77;100624.23;1724990;82;21075;-82
2022/03/12 04:35:25;;;;;;;22.48;7.55;;;;;;;-6.68;56.02;100618.19;1732678;82;21007;-85
2022/03/12 04:37:55;;;;;;;15.63;6.22;;;;;;;-6.72;55.99;100630.14;1732566;82;21086;-82
2022/03/12 04:40:25;;;;;;;12.35;5.87;;;;;;;-6.75;57.30;100631.18;1706229;82;20965;-83
2022/03/12 04:42:52;;;;;;;12.10;5.90;;;;;;;-6.83;56.59;100634.84;1731355;82;21011;-83
2022/03/12 04:45:23;;;;;;;15.05;5.17;;;;;;;-6.83;56.59;100634.84;1728457;82;21024;-83
2022/03/12 04:47:51;;;;;;;14.30;5.97;;;;;;;-6.81;56.87;100634.55;1724168;82;21019;-84
2022/03/12 04:50:20;;;;;;;22.15;9.88;;;;;;;-6.82;57.25;100641.67;1720573;82;21101;-82
2022/03/12 04:52:50;;;;;;;18.05;8.30;;;;;;;-6.81;55.76;100639.61;1712354;82;21031;-82
2022/03/12 04:55:23;;;;;;;21.52;7.78;;;;;;;-6.81;57.29;100645.55;1733623;82;21019;-81
2022/03/12 04:57:50;;;;;;;31.40;10.23;;;;;;;-6.79;58.04;100653.24;1726667;82;21019;-83
2022/03/12 05:00:25;;;;;;;21.48;8.65;;;;;;;-6.79;58.88;100655.77;1718249;82;21056;-83
2022/03/12 05:02:55;;;;;;;22.22;7.25;;;;;;;-6.83;57.98;100652.14;1711072;83;20996;-83
2022/03/12 05:05:22;;;;;;;22.02;6.97;;;;;;;-6.87;58.82;100658.16;1738629;82;21044;-84
2022/03/12 05:07:51;;;;;;;22.55;9.98;;;;;;;-6.87;58.82;100658.16;1721996;83;21496;-83
2022/03/12 05:10:17;;;;;;;20.35;7.80;;;;;;;-6.91;57.02;100654.92;1718288;82;21039;-82
2022/03/12 05:12:50;;;;;;;21.00;8.10;;;;;;;-6.91;57.02;100654.92;1726219;83;21032;-83
2022/03/12 05:15:17;;;;;;;37.15;10.65;;;;;;;-6.98;55.31;100661.58;1736062;82;21032;-82
2022/03/12 05:17:50;;;;;;;20.27;8.35;;;;;;;-7.00;58.58;100657.70;1722382;83;21031;-82
2022/03/12 05:20:24;;;;;;;15.80;7.12;;;;;;;-6.97;58.87;100659.56;1745735;82;21054;-83
2022/03/12 05:22:51;;;;;;;97.20;24.98;;;;;;;-6.96;56.61;100663.83;1747191;82;21012;-84
2022/03/12 05:25:19;;;;;;;50.23;11.63;;;;;;;-7.02;56.04;100666.44;1726808;82;21035;-82
2022/03/12 05:27:53;;;;;;;28.80;9.45;;;;;;;-7.04;60.21;100669.25;1726494;83;21039;-82
2022/03/12 05:30:20;;;;;;;;;;;;;;;-7.00;57.57;100678.80;1731108;82;21019;-82
2022/03/12 05:32:51;;;;;;;23.42;9.15;;;;;;;-6.95;58.58;100670.66;1724380;83;20137;-82
2022/03/12 05:35:18;;;;;;;39.23;11.65;;;;;;;-6.93;57.57;100659.00;1725798;83;21011;-82
2022/03/12 05:37:47;;;;;;;25.35;11.78;;;;;;;-6.93;57.57;100659.00;1724555;82;21077;-82
2022/03/12 05:40:19;;;;;;;64.15;22.00;;;;;;;-6.87;57.48;100659.42;1732623;82;21036;-82
2022/03/12 05:42:47;;;;;;;145.95;42.15;;;;;;;-6.83;58.48;100660.13;1746276;82;21197;-83
2022/03/12 05:45:17;;;;;;;116.25;33.48;;;;;;;-6.78;57.23;100652.84;1740462;82;21112;-84
2022/03/12 05:47:44;;;;;;;102.50;27.15;;;;;;;-6.73;57.04;100662.91;1740469;82;20987;-82
2022/03/12 05:50:13;;;;;;;81.22;24.43;;;;;;;-6.70;58.60;100666.53;1729715;82;21023;-84
2022/03/12 05:52:48;;;;;;;69.77;18.35;;;;;;;-6.63;58.21;100668.69;1741062;82;21004;-85
2022/03/12 05:55:19;;;;;;;52.03;15.65;;;;;;;-6.54;56.50;100658.73;1733037;82;21032;-84
2022/03/12 05:57:46;;;;;;;69.97;18.37;;;;;;;-6.46;57.82;100661.00;1738622;82;21031;-84
2022/03/12 06:00:15;;;;;;;66.22;18.62;;;;;;;-6.28;57.70;100662.63;1741530;82;21000;-85
2022/03/12 06:02:52;;;;;;;78.17;20.00;;;;;;;-6.28;57.70;100662.63;1717983;82;21008;-84
2022/03/12 06:05:24;;;;;;;54.63;16.87;;;;;;;-6.07;57.91;100655.97;1741375;82;21121;-82
2022/03/12 06:07:54;;;;;;;44.98;14.47;;;;;;;-6.07;57.91;100655.97;1726218;82;21047;-82
2022/03/12 06:10:25;;;;;;;27.27;11.25;;;;;;;-5.97;57.79;100654.92;1724767;83;21055;-84
2022/03/12 06:12:53;;;;;;;26.50;11.35;;;;;;;-5.76;56.32;100668.09;1711462;83;21075;-83
2022/03/12 06:15:24;;;;;;;34.15;11.10;;;;;;;-5.76;56.32;100668.09;1718718;82;20992;-82
2022/03/12 06:17:50;;;;;;;30.27;11.70;;;;;;;-5.70;56.32;100659.62;1721143;83;21041;-85
2022/03/12 06:20:20;;;;;;;26.62;9.00;;;;;;;-5.47;56.16;100670.86;1740085;82;21011;-84
2022/03/12 06:22:49;;;;;;;26.20;7.92;;;;;;;-5.47;56.16;100670.86;1718049;81;21003;-83
2022/03/12 06:25:17;;;;;;;20.27;7.87;;;;;;;-5.37;55.96;100674.86;1727012;83;21034;-84
2022/03/12 06:27:47;;;;;;;26.95;10.63;;;;;;;-5.28;55.99;100675.83;1726514;82;21063;-83
2022/03/12 06:30:15;;;;;;;25.90;10.45;;;;;;;-5.18;55.53;100681.09;1747283;81;20971;-84
2022/03/12 06:32:43;;;;;;;31.60;8.55;;;;;;;-5.10;55.50;100687.52;1727464;83;21047;-83
2022/03/12 06:35:12;;;;;;;24.75;8.58;;;;;;;-5.12;54.65;100664.59;1727641;83;20972;-84
2022/03/12 06:37:43;;;;;;;16.40;5.83;;;;;;;-4.91;54.31;100689.56;1727548;83;21125;-84
2022/03/12 06:40:14;;;;;;;14.20;5.30;;;;;;;-4.89;53.61;100693.95;1720329;83;21093;-83
2022/03/12 06:42:47;;;;;;;13.93;5.53;;;;;;;-4.92;52.88;100697.95;1714989;83;21087;-84
2022/03/12 06:45:15;;;;;;;20.47;5.63;;;;;;;-4.92;52.88;100697.95;1743346;82;20994;-83
2022/03/12 06:47:46;;;;;;;17.82;5.87;;;;;;;-4.89;52.87;100696.88;1745071;82;21021;-83
2022/03/12 06:50:21;;;;;;;16.42;5.22;;;;;;;-4.86;53.17;100705.94;1702457;83;21039;-84
2022/03/12 06:52:50;;;;;;;23.77;5.35;;;;;;;-4.75;53.04;100699.88;1724492;83;21030;-83
2022/03/12 06:55:21;;;;;;;10.32;4.47;;;;;;;-4.68;52.54;100698.58;1727240;83;21043;-83
2022/03/12 06:57:51;;;;;;;9.78;5.00;;;;;;;-4.62;52.79;100706.56;1712904;83;21160;-82
2022/03/12 07:00:26;;;;;;;10.68;4.58;;;;;;;-4.49;52.85;100711.63;1719724;83;21031;-80
2022/03/12 07:02:53;;;;;;;10.90;5.85;;;;;;;-4.37;52.38;100710.63;1698899;83;21056;-83
2022/03/12 07:05:21;;;;;;;18.87;5.67;;;;;;;-4.25;52.28;100710.09;1723523;83;21042;-84
2022/03/12 07:07:49;;;;;;;18.00;6.50;;;;;;;-4.15;52.22;100717.87;1727437;82;21078;-83
2022/03/12 07:10:17;;;;;;;19.77;6.33;;;;;;;-4.04;51.85;100713.01;1728260;82;21035;-82
2022/03/12 07:12:48;;;;;;;13.75;5.95;;;;;;;-3.94;51.56;100711.89;1756696;81;21051;-84
2022/03/12 07:15:17;;;;;;;16.62;5.37;;;;;;;-3.82;51.55;100710.06;1745880;82;20975;-83
2022/03/12 07:17:44;;;;;;;11.10;4.25;;;;;;;-3.72;51.32;100707.67;1732629;82;20992;-82
2022/03/12 07:20:13;;;;;;;14.35;5.83;;;;;;;-3.64;51.12;100711.16;1745218;81;21017;-83
2022/03/12 07:22:40;;;;;;;11.90;4.92;;;;;;;-3.57;50.07;100708.96;1745214;80;21032;-85
2022/03/12 07:25:11;;;;;;;17.67;6.03;;;;;;;-3.48;50.40;100715.45;1745272;82;20976;-83
2022/03/12 07:27:39;;;;;;;12.45;5.25;;;;;;;-3.40;49.87;100714.22;1744893;80;21004;-83
2022/03/12 07:30:08;;;;;;;18.62;5.00;;;;;;;-3.29;50.04;100721.58;1745059;82;21035;-82
2022/03/12 07:32:36;;;;;;;13.70;5.37;;;;;;;-3.20;49.79;100714.47;1767837;77;21201;-83
2022/03/12 07:35:05;;;;;;;12.68;4.65;;;;;;;-3.11;48.72;100719.19;1793643;80;21053;-83
2022/03/12 07:37:32;;;;;;;10.85;4.25;;;;;;;-3.05;48.53;100713.16;1793576;80;20995;-82
2022/03/12 07:39:59;;;;;;;7.85;3.65;;;;;;;-2.96;48.90;100726.78;1793777;80;20998;-83
2022/03/12 07:42:25;;;;;;;9.25;4.37;;;;;;;-2.90;48.06;100713.15;1793548;80;21002;-82
2022/03/12 07:44:53;;;;;;;11.00;4.03;;;;;;;-2.78;48.00;100719.31;1793541;80;20985;-82
2022/03/12 07:47:19;;;;;;;10.38;3.17;;;;;;;-2.66;48.29;100714.87;1786083;80;21008;-82
2022/03/12 07:49:46;;;;;;;10.82;4.03;;;;;;;-2.55;47.69;100718.85;1782766;80;20991;-84
2022/03/12 07:52:13;;;;;;;10.60;3.25;;;;;;;-2.44;47.80;100710.53;1793948;80;21108;-83
2022/03/12 07:54:39;;;;;;;8.80;3.62;;;;;;;-2.37;47.13;100716.81;1793717;80;21254;-82
2022/03/12 07:57:06;;;;;;;11.33;4.05;;;;;;;-2.29;46.49;100711.72;1793977;80;21013;-82
2022/03/12 07:59:34;;;;;;;10.60;3.90;;;;;;;-2.18;46.59;100712.30;1797242;78;21110;-84
2022/03/12 08:02:09;;;;;;;13.18;4.15;;;;;;;-2.07;46.29;100709.88;1804759;77;21105;31
2022/03/12 08:04:45;;;;;;;6.53;2.87;;;;;;;-1.94;46.98;100703.76;1723691;79;21007;31
2022/03/12 08:07:11;;;;;;;10.40;3.10;;;;;;;-1.81;45.18;100707.38;1746483;79;21103;-79
2022/03/12 08:09:38;;;;;;;7.65;3.85;;;;;;;-1.67;46.15;100704.25;1767964;79;21035;-83
2022/03/12 08:12:06;;;;;;;13.43;3.77;;;;;;;-1.55;46.09;100707.44;1779677;79;21022;-83
2022/03/12 08:14:34;;;;;;;11.25;3.70;;;;;;;-1.43;45.89;100702.93;1791264;79;20997;-84
2022/03/12 08:17:00;;;;;;;6.37;2.67;;;;;;;-1.30;45.74;100696.73;1819844;78;20965;-84
2022/03/12 08:19:30;;;;;;;9.55;3.25;;;;;;;-1.18;45.62;100696.45;1768761;80;21057;-83
2022/03/12 08:21:59;;;;;;;8.98;3.30;;;;;;;-1.05;45.18;100697.52;1769410;80;21038;-83
2022/03/12 08:24:26;;;;;;;8.83;3.40;;;;;;;-1.00;43.92;100693.48;1786341;80;20970;-83
2022/03/12 08:26:52;;;;;;;6.60;2.80;;;;;;;-0.91;42.83;100689.22;1800952;80;21074;-83
2022/03/12 08:29:19;;;;;;;8.58;2.75;;;;;;;-0.85;43.59;100689.50;1821438;78;20971;-84
2022/03/12 08:31:46;;;;;;;7.55;3.10;;;;;;;-0.77;44.17;100692.83;1801842;78;21214;-84
2022/03/12 08:34:13;;;;;;;6.10;2.70;;;;;;;-0.70;43.71;100694.84;1801088;79;21006;-84
2022/03/12 08:39:38;;;;;;;7.97;3.55;;;;;;;-0.62;43.27;100689.30;1757141;78;21093;-82
2022/03/12 08:42:06;;;;;;;8.83;3.95;;;;;;;-0.56;42.90;100696.75;1815491;79;21034;-81
2022/03/12 08:47:35;;;;;;;9.33;3.95;;;;;;;-0.62;42.59;100690.58;1699249;82;21173;-84
2022/03/12 08:50:03;;;;;;;5.85;3.42;;;;;;;-0.48;43.42;100683.91;1688913;84;21075;-85
2022/03/12 08:52:29;;;;;;;10.15;3.80;;;;;;;-0.35;43.67;100687.49;1694761;83;21024;-83
2022/03/12 08:54:56;;;;;;;8.80;3.42;;;;;;;-0.24;42.63;100687.58;1760879;80;21098;-84
2022/03/12 08:57:22;;;;;;;8.15;3.00;;;;;;;-0.18;42.85;100677.13;1724980;82;21044;-83
2022/03/12 08:59:48;;;;;;;8.45;4.30;;;;;;;-0.04;42.80;100680.77;1726210;80;21767;-82
2022/03/12 09:05:19;;;;;;;7.20;3.27;;;;;;;0.17;41.69;100683.77;1725431;80;21086;-81
2022/03/12 09:07:49;;;;;;;8.63;3.10;;;;;;;0.26;41.93;100685.44;1774057;78;21093;-78
2022/03/12 09:10:35;;;;;;;7.22;2.98;;;;;;;0.37;41.35;100686.73;1795271;79;21078;31
2022/03/12 09:13:02;;;;;;;6.47;3.10;;;;;;;0.46;40.85;100681.53;1755645;78;21057;-82
2022/03/12 09:18:31;;;;;;;14.80;2.98;;;;;;;0.59;41.69;100675.70;1748773;80;21083;-85
2022/03/12 09:24:22;;;;;;;7.22;3.08;;;;;;;0.82;40.06;100669.73;1738629;78;21135;31
2022/03/12 09:29:52;;;;;;;7.17;3.10;;;;;;;1.02;40.27;100664.15;1818621;78;21043;-83
2022/03/12 09:41:38;;;;;;;5.67;2.45;;;;;;;1.03;38.35;100657.78;1804634;78;21085;-81
2022/03/12 09:44:06;;;;;;;6.65;2.92;;;;;;;1.02;39.16;100658.61;1752231;79;21022;-85
2022/03/12 09:46:33;;;;;;;8.13;2.85;;;;;;;1.10;37.69;100652.50;1755065;79;21020;-84
2022/03/12 09:49:00;;;;;;;10.45;3.72;;;;;;;1.17;39.52;100646.78;1786997;79;21009;-84
2022/03/12 09:51:29;;;;;;;14.75;3.98;;;;;;;1.16;38.55;100643.77;1781963;80;20950;-84
2022/03/12 09:53:56;;;;;;;8.40;2.42;;;;;;;1.21;36.75;100643.52;1782324;79;20977;-84
2022/03/12 09:56:24;;;;;;;7.92;2.85;;;;;;;1.26;37.39;100647.13;1786859;79;20986;-85
2022/03/12 09:58:51;;;;;;;6.28;2.90;;;;;;;1.33;38.70;100642.72;1766144;81;21148;-84
2022/03/12 10:01:17;;;;;;;11.88;3.98;;;;;;;1.29;37.65;100644.67;1798292;79;20936;-86
2022/03/12 10:03:44;;;;;;;14.43;5.20;;;;;;;1.25;34.66;100633.84;1787185;79;21024;-84
2022/03/12 10:06:11;;;;;;;12.43;4.83;;;;;;;1.29;35.14;100638.67;1781855;80;21001;-85
2022/03/12 10:08:37;;;;;;;8.83;3.47;;;;;;;1.29;34.53;100630.58;1804468;79;21499;-85
2022/03/12 10:11:05;;;;;;;7.50;2.77;;;;;;;1.33;36.26;100631.18;1792873;79;21096;-83
2022/03/12 10:13:31;;;;;;;11.08;3.35;;;;;;;1.40;34.79;100630.98;1789793;79;21072;-84
2022/03/12 10:15:59;;;;;;;6.95;2.12;;;;;;;1.53;35.54;100625.50;1772658;79;21022;-84
2022/03/12 10:18:29;;;;;;;5.87;2.80;;;;;;;1.61;36.60;100627.44;1781704;79;21065;-84
2022/03/12 10:21:00;;;;;;;7.45;2.80;;;;;;;1.71;36.59;100627.84;1760298;80;20993;-85
2022/03/12 10:23:24;;;;;;;9.25;3.02;;;;;;;1.68;35.86;100614.03;1797396;79;21043;-84
2022/03/12 10:25:50;;;;;;;5.60;2.72;;;;;;;1.78;36.07;100622.09;1805245;79;21003;-83
2022/03/12 10:28:18;;;;;;;6.40;2.22;;;;;;;1.81;35.75;100617.89;1791164;79;20964;-84
2022/03/12 10:30:44;;;;;;;5.03;2.27;;;;;;;1.94;36.82;100611.09;1813740;79;21000;-81
2022/03/12 10:33:23;;;;;;;5.58;2.40;;;;;;;2.15;36.34;100609.25;1782296;79;21053;-78
2022/03/12 10:35:51;;;;;;;5.95;2.22;;;;;;;2.17;36.04;100602.47;1794692;79;21064;-84
2022/03/12 10:38:17;;;;;;;9.88;2.90;;;;;;;2.34;35.72;100597.87;1781991;80;21093;-84
2022/03/12 10:40:46;;;;;;;4.83;2.55;;;;;;;2.52;35.61;100602.72;1750835;81;21112;-84
2022/03/12 10:43:15;;;;;;;31.37;11.83;;;;;;;2.57;34.26;100605.03;1727842;82;21049;-84
2022/03/12 10:45:47;;;;;;;8.48;3.47;;;;;;;2.63;32.95;100595.38;1743839;82;21056;-84
2022/03/12 10:48:19;;;;;;;11.08;3.87;;;;;;;2.61;33.79;100590.60;1743915;82;21037;-84
2022/03/12 10:50:49;;;;;;;9.68;2.87;;;;;;;2.55;32.74;100585.27;1749313;81;20994;-84
2022/03/12 10:53:17;;;;;;;6.58;3.33;;;;;;;2.51;33.26;100587.29;1748941;82;21040;-84
2022/03/12 10:55:47;;;;;;;56.55;18.45;;;;;;;2.56;32.90;100582.73;1729798;82;20982;-83
2022/03/12 10:58:24;;;;;;;28.50;8.45;;;;;;;2.70;33.97;100570.73;1749656;82;21006;-84
2022/03/12 11:00:53;;;;;;;70.87;18.77;;;;;;;2.95;34.54;100572.35;1749416;82;21033;-83
2022/03/12 11:03:28;;;;;;;101.02;26.82;;;;;;;3.04;32.76;100570.03;1734600;82;21036;-83
2022/03/12 11:05:56;;;;;;;24.95;8.80;;;;;;;3.22;34.62;100563.68;1719556;84;21053;-83
2022/03/12 11:08:51;;;;;;;;;;;;;;;;;;;;;
2022/03/12 11:11:19;;;;;;;57.90;15.40;;;;;;;3.60;34.09;100560.86;1783642;78;21593;-87
2022/03/12 11:13:50;;;;;;;13.05;5.00;;;;;;;3.70;32.77;100554.27;1851315;77;20961;-84
2022/03/12 11:16:28;;;;;;;8.33;3.35;;;;;;;3.87;33.69;100556.00;1848008;77;20994;-84
2022/03/12 11:19:11;;;;;;;9.73;3.75;;;;;;;3.92;33.00;100559.55;1873016;77;20961;-85
2022/03/12 11:21:47;;;;;;;5.80;2.85;;;;;;;3.88;31.82;100555.16;1843762;77;21059;-84
2022/03/12 11:24:22;;;;;;;6.17;3.10;;;;;;;3.79;31.31;100552.80;1804856;78;21017;-83
2022/03/12 11:26:58;;;;;;;12.58;4.47;;;;;;;3.85;32.96;100552.52;1771779;79;21068;-87
2022/03/12 11:29:28;;;;;;;8.60;3.90;;;;;;;3.99;32.53;100548.16;1674005;83;21091;-83
2022/03/12 11:31:59;;;;;;;11.68;3.75;;;;;;;4.26;32.57;100549.68;1758052;79;21062;-88
2022/03/12 11:34:42;;;;;;;8.55;3.35;;;;;;;4.16;29.41;100540.00;1768766;79;21754;-86
2022/03/12 11:37:16;;;;;;;12.10;3.30;;;;;;;4.27;31.42;100535.95;1822220;78;20990;-85
2022/03/12 11:39:47;;;;;;;14.23;4.70;;;;;;;4.17;30.02;100489.82;1814969;77;21145;-84
2022/03/12 11:42:19;;;;;;;64.82;18.62;;;;;;;4.57;29.74;100527.19;1808709;79;21033;-84
2022/03/12 11:44:54;;;;;;;43.35;12.55;;;;;;;4.99;30.43;100525.08;1812072;76;21045;-85
2022/03/12 11:47:25;;;;;;;10.38;4.92;;;;;;;5.85;29.98;100524.52;1864977;76;21036;-83
2022/03/12 11:49:58;;;;;;;49.30;13.20;;;;;;;6.71;27.87;100518.13;1818689;76;20993;-84
2022/03/12 11:52:25;;;;;;;24.70;8.80;;;;;;;7.73;27.89;100514.52;1836441;78;21030;-81
2022/03/12 11:54:57;;;;;;;10.48;4.47;;;;;;;8.92;26.91;100508.45;1830641;78;20977;-82
2022/03/12 11:57:27;;;;;;;9.88;4.15;;;;;;;9.94;24.10;100507.37;1818253;78;20982;-85
2022/03/12 11:59:56;;;;;;;11.68;4.45;;;;;;;10.81;22.06;100508.99;1826492;78;20985;-84
2022/03/12 12:02:34;;;;;;;8.20;3.60;;;;;;;11.82;28.07;100493.24;1827455;77;20943;-85